Henry, Nebraska
Current Conditions -  °F | °C
As of 3:53 PM on Monday 22 Dec 2014 (Local Time) from KBFF Reporting Station
Clear Clear  
Wind Chill: -5°   Ceiling: Unl
Heat Index:   Visibility: 10mi
Dew Point: -4°   Wind: 18mph
Humidity: 70%   Direction: 300°WNW
Pressure: 29.66"   Gusts: 26mph
Location:  42°N, 104.05°W
Report Text: KBFF 222253Z AUTO 30016G23KT 10SM CLR 01/M04 A2966 RMK AO2 PK WND 31027/2209 SLP058 T00111039
Loading
Personal Weather Stations






























Interactive Weather Map New forecast layout! Learn more

10-Day Weather Forecast

Advertisements
Track Severe Weather on mobile